Time;durP1;ratioP1;P1;durP2;ratioP2;P2;SDS_P1;SDS_P2;PMS_P1;PMS_P2;Temp;Humidity;BMP_temperature;BMP_pressure;BME280_temperature;BME280_humidity;BME280_pressure;Samples;Min_cycle;Max_cycle;Signal;HPM_P1;HPM_P2
2021/04/22 00:02:28;;;;;;;1999.90;999.90;;;;;;;7.09;48.16;101177.78;15586822;28;20398;-73
2021/04/22 00:10:00;;;;;;;1999.90;999.90;;;;;;;7.12;47.96;101176.38;15621532;28;20083;-73
2021/04/22 00:17:32;;;;;;;1999.90;999.90;;;;;;;7.22;47.67;101173.44;15602925;28;20049;-72
2021/04/22 00:25:04;;;;;;;1999.90;999.90;;;;;;;6.94;48.57;101187.13;15619064;28;20124;-74
2021/04/22 00:32:37;;;;;;;1999.90;999.90;;;;;;;6.98;48.33;101180.97;15619575;28;20053;-73
2021/04/22 00:40:12;;;;;;;1999.90;999.90;;;;;;;7.05;48.77;101195.31;15620210;28;20041;-73
2021/04/22 00:47:45;;;;;;;1999.90;999.90;;;;;;;7.24;48.18;101194.22;15618725;28;20122;-73
2021/04/22 00:55:17;;;;;;;;;;;;;;;7.26;49.08;101201.41;15618561;28;20393;-72
2021/04/22 01:02:51;;;;;;;1999.90;999.90;;;;;;;7.34;49.24;101201.59;15617668;28;20370;-74
2021/04/22 01:10:23;;;;;;;1999.90;999.90;;;;;;;7.20;49.99;101201.50;15598735;28;20045;-73
2021/04/22 01:17:56;;;;;;;1999.90;999.90;;;;;;;7.33;50.33;101213.81;15617756;28;20057;-74
2021/04/22 01:25:30;;;;;;;1999.90;999.90;;;;;;;7.33;50.71;101211.03;15615269;28;20101;-73
2021/04/22 01:33:03;;;;;;;1999.90;999.90;;;;;;;7.55;50.47;101207.66;15630276;28;20076;-74
2021/04/22 01:40:37;;;;;;;1999.90;999.90;;;;;;;7.38;50.13;101208.16;15617169;28;20037;-72
2021/04/22 01:48:09;;;;;;;;;;;;;;;7.73;49.66;101217.94;15583422;28;20405;-73
2021/04/22 01:55:43;;;;;;;1999.90;999.90;;;;;;;7.43;49.97;101210.06;15582065;28;19924;-72
2021/04/22 02:03:15;;;;;;;1999.90;999.90;;;;;;;7.35;50.23;101214.34;15615510;28;20509;-72
2021/04/22 02:10:48;;;;;;;1999.90;999.90;;;;;;;7.11;50.86;101203.28;15580485;28;20124;-72
2021/04/22 02:18:20;;;;;;;1999.90;999.90;;;;;;;7.06;51.03;101206.13;15614549;28;20034;-72
2021/04/22 02:25:52;;;;;;;1999.90;999.90;;;;;;;7.32;50.74;101212.16;15613749;28;20048;-72
2021/04/22 02:33:24;;;;;;;1999.90;999.90;;;;;;;7.29;51.09;101204.41;15601149;28;20398;-74
2021/04/22 02:40:56;;;;;;;1999.90;999.90;;;;;;;7.29;50.79;101209.97;15576647;28;20524;-73
2021/04/22 02:48:28;;;;;;;1999.90;999.90;;;;;;;7.21;51.21;101213.44;15549824;28;20397;-74
2021/04/22 02:56:00;;;;;;;1999.90;999.90;;;;;;;7.06;51.83;101213.63;15593066;28;20034;-75
2021/04/22 03:03:32;;;;;;;1999.90;999.90;;;;;;;7.37;51.54;101211.25;15578149;28;20060;-72
2021/04/22 03:11:04;;;;;;;1999.90;999.90;;;;;;;7.26;52.29;101221.69;15612050;28;20436;-73
2021/04/22 03:18:36;;;;;;;1999.90;999.90;;;;;;;7.22;52.34;101215.09;15612196;28;20077;-73
2021/04/22 03:26:08;;;;;;;1999.90;999.90;;;;;;;7.10;52.73;101215.53;15611351;28;20034;-73
2021/04/22 03:33:40;;;;;;;1999.90;999.90;;;;;;;7.45;52.52;101221.69;15606133;28;20079;-73
2021/04/22 03:41:12;;;;;;;1999.90;999.90;;;;;;;7.18;53.27;101228.72;15624418;28;20517;-74
2021/04/22 03:48:44;;;;;;;1999.90;999.90;;;;;;;6.81;54.05;101234.19;15606573;28;20080;-74
2021/04/22 03:56:17;;;;;;;1999.90;999.90;;;;;;;7.21;53.13;101238.41;15624112;28;20490;-75
2021/04/22 04:03:48;;;;;;;1999.90;999.90;;;;;;;7.20;53.29;101237.59;15621698;28;20393;-72
2021/04/22 04:11:20;;;;;;;1999.90;999.90;;;;;;;7.28;53.25;101241.63;15620887;28;20037;-72
2021/04/22 04:18:52;;;;;;;1999.90;999.90;;;;;;;7.26;52.80;101240.28;15617162;28;20049;-72
2021/04/22 04:26:24;;;;;;;1999.90;999.90;;;;;;;7.35;52.86;101246.81;15687208;28;20120;-73
2021/04/22 04:33:56;;;;;;;1999.90;999.90;;;;;;;7.27;53.32;101242.75;15629901;28;20416;-73
2021/04/22 04:41:29;;;;;;;1999.90;999.90;;;;;;;7.17;53.53;101245.66;15618894;28;20119;-73
2021/04/22 04:49:01;;;;;;;1999.90;999.90;;;;;;;7.02;53.92;101254.19;15617357;28;20038;-73
2021/04/22 04:56:34;;;;;;;1999.90;999.90;;;;;;;7.35;53.90;101263.47;15618132;28;20069;-73
2021/04/22 05:04:07;;;;;;;;;;;;;;;7.53;53.60;101271.84;15616598;28;20045;-73
2021/04/22 05:11:39;;;;;;;1999.90;999.90;;;;;;;7.34;53.52;101267.38;15617405;28;19956;-74
2021/04/22 05:19:12;;;;;;;1999.90;999.90;;;;;;;7.80;53.21;101275.88;15622787;28;20080;-74
2021/04/22 05:26:47;;;;;;;1999.90;999.90;;;;;;;7.95;52.64;101280.41;15624187;28;20072;-73
2021/04/22 05:34:28;;;;;;;1999.90;999.90;;;;;;;7.58;52.47;101284.00;15631138;28;20045;-74
2021/04/22 05:42:08;;;;;;;1999.90;999.90;;;;;;;8.02;52.72;101291.94;15609649;28;20528;-74
2021/04/22 05:49:57;;;;;;;1999.90;999.90;;;;;;;8.05;51.78;101294.97;15635660;22;20156;-57
2021/04/22 05:57:50;;;;;;;1999.90;999.90;;;;;;;7.84;52.60;101309.47;15660554;28;20045;-54
2021/04/22 06:05:27;;;;;;;1999.90;999.90;;;;;;;8.63;51.23;101308.47;15643946;28;20129;-55
2021/04/22 06:13:19;;;;;;;1999.90;999.90;;;;;;;8.89;50.39;101311.59;15611128;28;20378;-60
2021/04/22 06:20:51;;;;;;;1999.90;999.90;;;;;;;8.81;50.49;101309.53;15609887;28;20056;-58
2021/04/22 06:28:24;;;;;;;1999.90;999.90;;;;;;;9.35;49.79;101310.69;15611120;28;20049;-57
2021/04/22 06:36:05;;;;;;;1999.90;999.90;;;;;;;9.45;49.18;101326.38;15610085;28;20041;-60
2021/04/22 06:43:38;;;;;;;1999.90;999.90;;;;;;;9.39;49.55;101327.63;15610254;28;20458;-58
2021/04/22 06:51:09;;;;;;;1999.90;999.90;;;;;;;9.06;49.53;101330.47;15609402;28;20120;-58
2021/04/22 06:58:42;;;;;;;1999.90;999.90;;;;;;;9.68;48.52;101342.00;15592394;28;20149;-55
2021/04/22 07:06:13;;;;;;;1999.90;999.90;;;;;;;9.91;47.86;101342.09;15616961;28;20114;-56
2021/04/22 07:13:47;;;;;;;1999.90;999.90;;;;;;;10.01;47.88;101342.69;15623059;28;20087;-58
2021/04/22 07:21:19;;;;;;;1999.90;999.90;;;;;;;10.48;48.28;101348.00;15620691;28;20049;-60
2021/04/22 07:28:52;;;;;;;1999.90;999.90;;;;;;;9.76;48.19;101352.44;15620997;28;20148;-59
2021/04/22 07:36:24;;;;;;;1999.90;999.90;;;;;;;9.80;48.58;101359.06;15620632;28;20041;-56
2021/04/22 07:43:57;;;;;;;1999.90;999.90;;;;;;;9.73;47.32;101355.84;15618123;28;20179;-59
2021/04/22 07:51:28;;;;;;;1999.90;999.90;;;;;;;11.15;46.12;101376.69;15602109;28;20127;-56
2021/04/22 07:59:02;;;;;;;1999.90;999.90;;;;;;;11.27;45.75;101385.28;15634666;28;20072;-59
2021/04/22 08:06:35;;;;;;;1999.90;999.90;;;;;;;11.54;45.56;101386.22;15630768;28;20312;-59
2021/04/22 08:14:07;;;;;;;1999.90;999.90;;;;;;;11.14;45.50;101383.41;15637363;28;20429;-56
2021/04/22 08:21:39;;;;;;;1999.90;999.90;;;;;;;11.41;44.27;101382.38;15660689;28;20057;-52
2021/04/22 08:29:12;;;;;;;1999.90;999.90;;;;;;;12.46;43.44;101380.66;15625674;28;20113;-59
2021/04/22 08:36:43;;;;;;;1999.90;999.90;;;;;;;11.93;43.95;101376.97;15657420;28;20059;-56
2021/04/22 08:44:16;;;;;;;1999.90;999.90;;;;;;;13.68;39.81;101367.97;15668149;28;20048;-57
2021/04/22 08:51:48;;;;;;;1999.90;999.90;;;;;;;13.27;41.53;101389.09;15648781;28;20049;-59
2021/04/22 08:59:21;;;;;;;1999.90;999.90;;;;;;;13.24;41.57;101396.19;15630994;28;20045;-57
2021/04/22 09:06:53;;;;;;;1999.90;999.90;;;;;;;12.13;42.14;101401.53;15615107;28;20124;-59
2021/04/22 09:14:26;;;;;;;1999.90;999.90;;;;;;;13.50;42.32;101403.69;15615172;28;20300;-54
2021/04/22 09:21:58;;;;;;;1999.90;999.90;;;;;;;12.42;41.94;101398.09;15614101;28;20046;-56
2021/04/22 09:29:33;;;;;;;1999.90;999.90;;;;;;;13.63;41.16;101405.44;15612379;28;20091;-54
2021/04/22 09:37:04;;;;;;;1999.90;999.90;;;;;;;15.71;38.04;101409.25;15628807;28;20122;-55
2021/04/22 09:44:38;;;;;;;1999.90;999.90;;;;;;;14.31;39.35;101409.00;15636844;28;20045;-54
2021/04/22 09:52:10;;;;;;;;;;;;;;;13.58;39.17;101409.25;15671859;28;20048;-56
2021/04/22 09:59:44;;;;;;;1999.90;999.90;;;;;;;13.54;39.45;101407.44;15619503;28;19920;-54
2021/04/22 10:07:22;;;;;;;1999.90;999.90;;;;;;;15.88;37.21;101403.41;15608852;28;20228;-52
2021/04/22 10:14:55;;;;;;;1999.90;999.90;;;;;;;14.10;36.20;101406.16;15668027;28;20053;-57
2021/04/22 10:22:32;;;;;;;1999.90;999.90;;;;;;;17.02;34.02;101407.69;15670078;28;20045;-55
2021/04/22 10:30:08;;;;;;;1999.90;999.90;;;;;;;16.71;33.11;101401.97;15665540;28;20517;-55
2021/04/22 10:37:42;;;;;;;1999.90;999.90;;;;;;;14.13;37.38;101405.47;15637061;28;20041;-55
2021/04/22 10:45:17;;;;;;;1999.90;999.90;;;;;;;16.38;34.22;101397.34;15661830;28;20048;-52
2021/04/22 10:52:50;;;;;;;1999.90;999.90;;;;;;;18.57;30.73;101397.00;15613532;28;20060;-60
2021/04/22 11:00:29;;;;;;;1999.90;999.90;;;;;;;14.41;35.09;101404.94;15622437;28;20056;-56
2021/04/22 11:08:08;;;;;;;1999.90;999.90;;;;;;;17.62;29.56;101389.94;15616450;28;20048;-56
2021/04/22 11:15:58;;;;;;;1999.90;999.90;;;;;;;14.30;35.66;101398.94;15633484;28;20056;-56
2021/04/22 11:23:41;;;;;;;1999.90;999.90;;;;;;;16.69;32.10;101398.69;15626412;28;20098;-60
2021/04/22 11:31:17;;;;;;;1999.90;999.90;;;;;;;18.43;29.97;101379.72;15608949;28;20425;-58
2021/04/22 11:38:52;;;;;;;1999.90;999.90;;;;;;;18.13;32.58;101396.41;15628156;28;20464;-58
2021/04/22 11:46:36;;;;;;;1999.90;999.90;;;;;;;17.24;30.50;101394.16;15619593;28;20045;-55
2021/04/22 11:54:19;;;;;;;1999.90;999.90;;;;;;;15.93;31.36;101403.16;15644125;28;20051;-54
2021/04/22 12:01:58;;;;;;;1999.90;999.90;;;;;;;15.22;34.23;101392.31;15649197;23;20314;-60
2021/04/22 12:09:32;;;;;;;1999.90;999.90;;;;;;;15.10;35.51;101409.13;15676109;28;20056;-60
2021/04/22 12:17:19;;;;;;;1999.90;999.90;;;;;;;14.72;35.68;101407.38;15662167;28;20067;-60
2021/04/22 12:24:51;;;;;;;1999.90;999.90;;;;;;;14.70;35.00;101395.66;15631542;28;20072;-60
2021/04/22 12:32:23;;;;;;;1999.90;999.90;;;;;;;16.41;34.08;101390.16;15670008;28;20114;-61
2021/04/22 12:39:58;;;;;;;1999.90;999.90;;;;;;;16.55;32.33;101403.84;15652693;28;20077;-59
2021/04/22 12:47:36;;;;;;;1999.90;999.90;;;;;;;13.83;41.15;101429.91;15628699;28;20420;-59
2021/04/22 12:55:11;;;;;;;1999.90;999.90;;;;;;;13.91;40.09;101402.97;15615198;28;20459;-60
2021/04/22 13:02:43;;;;;;;1999.90;999.90;;;;;;;17.60;33.05;101412.84;15614215;28;20136;-60
2021/04/22 13:10:18;;;;;;;1999.90;999.90;;;;;;;14.84;35.96;101400.97;15615539;28;20054;-59
2021/04/22 13:17:50;;;;;;;;;;;;;;;14.00;38.72;101414.16;15613878;28;20071;-60
2021/04/22 13:25:28;;;;;;;1999.90;999.90;;;;;;;14.57;37.50;101422.03;15650142;28;19927;-60
2021/04/22 13:33:05;;;;;;;1999.90;999.90;;;;;;;16.45;36.15;101386.28;15649471;28;20084;-60
2021/04/22 13:40:39;;;;;;;1999.90;999.90;;;;;;;15.24;34.40;101387.16;15597575;28;20038;-59
2021/04/22 13:48:14;;;;;;;1999.90;999.90;;;;;;;16.25;33.82;101389.25;15607850;28;20502;-61
2021/04/22 13:55:48;;;;;;;1999.90;999.90;;;;;;;15.77;33.07;101402.22;15617592;28;20037;-60
2021/04/22 14:03:21;;;;;;;1999.90;999.90;;;;;;;15.17;34.92;101417.81;15640270;28;20405;-61
2021/04/22 14:10:54;;;;;;;1999.90;999.90;;;;;;;14.41;36.06;101416.19;15627933;28;20042;-59
2021/04/22 14:18:26;;;;;;;1999.90;999.90;;;;;;;14.23;35.82;101409.88;15653874;28;20045;-58
2021/04/22 14:25:57;;;;;;;1999.90;999.90;;;;;;;14.12;36.55;101412.25;15657979;28;20481;-59
2021/04/22 14:33:30;;;;;;;1999.90;999.90;;;;;;;14.35;36.00;101404.31;15641888;28;20046;-61
2021/04/22 14:41:02;;;;;;;1999.90;999.90;;;;;;;13.83;35.10;101390.63;15592289;28;20158;-61
2021/04/22 14:48:35;;;;;;;1999.90;999.90;;;;;;;14.24;34.97;101408.69;15605021;28;20130;-60
2021/04/22 14:56:06;;;;;;;1999.90;999.90;;;;;;;14.00;35.65;101412.16;15598305;28;20033;-60
2021/04/22 15:03:39;;;;;;;1999.90;999.90;;;;;;;13.91;36.08;101411.41;15633838;28;20037;-60
2021/04/22 15:11:11;;;;;;;1999.90;999.90;;;;;;;13.82;37.04;101422.66;15645387;28;20045;-60
2021/04/22 15:18:43;;;;;;;1999.90;999.90;;;;;;;13.64;37.24;101428.69;15633211;28;20513;-61
2021/04/22 15:26:15;;;;;;;1999.90;999.90;;;;;;;13.87;36.88;101416.06;15633344;28;20033;-62
2021/04/22 15:33:47;;;;;;;1999.90;999.90;;;;;;;13.40;37.66;101434.88;15624867;28;20454;-60
2021/04/22 15:41:19;;;;;;;1999.90;999.90;;;;;;;12.86;39.32;101432.50;15621526;28;20096;-60
2021/04/22 15:48:52;;;;;;;1999.90;999.90;;;;;;;12.92;39.28;101459.19;15595700;28;20806;-61
2021/04/22 15:56:24;;;;;;;1999.90;999.90;;;;;;;12.85;40.77;101455.25;15653229;28;20048;-60
2021/04/22 16:03:56;;;;;;;1999.90;999.90;;;;;;;12.26;44.48;101485.66;15655999;28;20049;-60
2021/04/22 16:11:28;;;;;;;1999.90;999.90;;;;;;;12.35;49.99;101475.31;15589826;28;20377;-59
2021/04/22 16:19:00;;;;;;;1999.90;999.90;;;;;;;12.17;48.11;101490.41;15642125;28;20050;-61
2021/04/22 16:26:32;;;;;;;1999.90;999.90;;;;;;;12.45;47.06;101491.78;15622537;28;20076;-60
2021/04/22 16:34:04;;;;;;;1999.90;999.90;;;;;;;12.27;46.95;101492.91;15627908;28;20079;-60
2021/04/22 16:41:36;;;;;;;1999.90;999.90;;;;;;;12.21;48.10;101494.22;15621310;28;20042;-59
2021/04/22 16:49:09;;;;;;;1999.90;999.90;;;;;;;12.01;47.41;101490.03;15632858;28;20045;-60
2021/04/22 16:56:41;;;;;;;1999.90;999.90;;;;;;;11.64;48.88;101497.75;15607069;28;20056;-60
2021/04/22 17:04:14;;;;;;;1999.90;999.90;;;;;;;11.99;48.03;101497.94;15644958;28;20057;-60
2021/04/22 17:11:46;;;;;;;1999.90;999.90;;;;;;;12.07;50.57;101503.53;15656398;28;20049;-61
2021/04/22 17:19:19;;;;;;;1999.90;999.90;;;;;;;12.20;51.30;101504.59;15637567;28;20081;-61
2021/04/22 17:26:50;;;;;;;1999.90;999.90;;;;;;;11.32;54.52;101512.84;15624266;28;20058;-59
2021/04/22 17:34:23;;;;;;;1999.90;999.90;;;;;;;11.52;57.89;101520.69;15633940;28;20128;-60
2021/04/22 17:41:57;;;;;;;1999.90;999.90;;;;;;;11.42;55.42;101523.75;15621687;28;20044;-60
2021/04/22 17:49:29;;;;;;;1999.90;999.90;;;;;;;10.98;58.29;101517.03;15633320;28;20393;-62
2021/04/22 17:57:05;;;;;;;1999.90;999.90;;;;;;;11.38;55.20;101535.91;15594007;28;20426;-63
2021/04/22 18:04:40;;;;;;;1999.90;999.90;;;;;;;11.43;53.02;101538.56;15672026;22;20431;-63
2021/04/22 18:12:12;;;;;;;1999.90;999.90;;;;;;;11.15;51.03;101547.09;15701657;28;20505;-61
2021/04/22 18:19:44;;;;;;;1999.90;999.90;;;;;;;11.43;51.21;101555.31;15632005;28;20635;-62
2021/04/22 18:27:16;;;;;;;1999.90;999.90;;;;;;;11.34;49.57;101554.44;15649963;28;20106;-60
2021/04/22 18:34:49;;;;;;;1999.90;999.90;;;;;;;11.29;49.60;101569.38;15616617;28;20056;-61
2021/04/22 18:42:22;;;;;;;1999.90;999.90;;;;;;;10.86;49.93;101581.00;15617386;28;20144;-62
2021/04/22 18:49:55;;;;;;;1999.90;999.90;;;;;;;10.98;48.42;101594.41;15631381;28;20046;-63
2021/04/22 18:57:27;;;;;;;1999.90;999.90;;;;;;;10.84;48.50;101600.03;15625910;28;20057;-63
2021/04/22 19:04:59;;;;;;;1999.90;999.90;;;;;;;10.79;48.46;101613.28;15609976;28;20050;-63
2021/04/22 19:12:31;;;;;;;1999.90;999.90;;;;;;;10.50;48.94;101627.56;15663825;28;20094;-62
2021/04/22 19:20:05;;;;;;;1999.90;999.90;;;;;;;10.59;48.34;101626.53;15629905;28;20045;-62
2021/04/22 19:27:37;;;;;;;1999.90;999.90;;;;;;;10.40;50.55;101625.81;15628954;28;20071;-62
2021/04/22 19:35:13;;;;;;;1999.90;999.90;;;;;;;10.40;49.51;101629.41;15642797;28;20470;-62
2021/04/22 19:42:45;;;;;;;1999.90;999.90;;;;;;;10.55;49.02;101633.88;15684615;23;20049;-59
2021/04/22 19:50:19;;;;;;;1999.90;999.90;;;;;;;10.67;48.91;101634.19;15680321;28;20107;-60
2021/04/22 19:57:51;;;;;;;1999.90;999.90;;;;;;;10.25;49.00;101654.84;15690112;23;20045;-63
2021/04/22 20:05:24;;;;;;;1999.90;999.90;;;;;;;10.33;49.46;101654.13;15590306;22;20148;-71
2021/04/22 20:20:51;;;;;;;;;;;;;;;10.16;50.08;101665.03;16983071;23;20464;-75
2021/04/22 20:28:22;;;;;;;1999.90;999.90;;;;;;;10.06;49.97;101668.00;15428374;28;19922;-74
2021/04/22 20:35:55;;;;;;;1999.90;999.90;;;;;;;9.98;50.76;101668.69;15422535;23;20070;-74
2021/04/22 20:43:30;;;;;;;1999.90;999.90;;;;;;;9.79;51.31;101672.34;15387630;28;20043;-72
2021/04/22 20:51:06;;;;;;;1999.90;999.90;;;;;;;9.51;52.63;101676.19;15370691;28;20052;-72
2021/04/22 20:58:37;;;;;;;1999.90;999.90;;;;;;;9.58;52.24;101689.72;15372618;29;20075;-73
2021/04/22 21:06:10;;;;;;;1999.90;999.90;;;;;;;9.57;52.94;101688.88;15344650;29;20051;-72
2021/04/22 21:13:44;;;;;;;1999.90;999.90;;;;;;;9.71;52.32;101692.59;15367972;28;20043;-75
2021/04/22 21:21:16;;;;;;;1999.90;999.90;;;;;;;9.69;53.07;101694.84;15364325;28;20059;-76
2021/04/22 21:28:47;;;;;;;1999.90;999.90;;;;;;;9.29;53.89;101682.38;15375287;29;20439;-74
2021/04/22 21:36:20;;;;;;;1999.90;999.90;;;;;;;9.57;53.55;101696.41;15355841;29;20055;-75
2021/04/22 21:43:53;;;;;;;1999.90;999.90;;;;;;;9.49;53.34;101693.22;15373638;28;20051;-75
2021/04/22 21:51:28;;;;;;;1999.90;999.90;;;;;;;9.42;53.93;101703.91;15353272;28;20074;-75
2021/04/22 21:59:03;;;;;;;1999.90;999.90;;;;;;;9.63;53.47;101704.41;15373908;29;20047;-73
2021/04/22 22:06:45;;;;;;;1999.90;999.90;;;;;;;9.54;53.59;101707.03;15371634;29;20047;-74
2021/04/22 22:14:21;;;;;;;1999.90;999.90;;;;;;;9.05;55.10;101720.56;15354365;29;20575;-78
2021/04/22 22:21:54;;;;;;;1999.90;999.90;;;;;;;8.95;55.36;101711.22;15369707;28;20276;-76
2021/04/22 22:29:26;;;;;;;1999.90;999.90;;;;;;;8.83;55.87;101723.91;15393408;28;20071;-76
2021/04/22 22:36:59;;;;;;;1999.90;999.90;;;;;;;8.87;56.20;101728.59;15334594;29;20484;-75
2021/04/22 22:44:33;;;;;;;1999.90;999.90;;;;;;;8.50;56.98;101718.16;15366198;28;20574;-75
2021/04/22 22:52:06;;;;;;;1999.90;999.90;;;;;;;8.45;57.97;101732.13;15335559;28;20047;-75
2021/04/22 22:59:40;;;;;;;1999.90;999.90;;;;;;;8.37;57.92;101736.38;15364372;28;20434;-75
2021/04/22 23:07:12;;;;;;;1999.90;999.90;;;;;;;8.59;57.63;101744.22;15348236;29;20380;-74
2021/04/22 23:14:44;;;;;;;1999.90;999.90;;;;;;;8.25;58.37;101755.38;15366964;28;20051;-74
2021/04/22 23:22:18;;;;;;;1999.90;999.90;;;;;;;8.06;59.40;101748.88;15369546;28;20063;-76
2021/04/22 23:29:50;;;;;;;1999.90;999.90;;;;;;;8.10;58.78;101750.78;15371671;29;20105;-75
2021/04/22 23:37:22;;;;;;;1999.90;999.90;;;;;;;8.18;58.93;101749.31;15369429;29;20057;-76
2021/04/22 23:44:54;;;;;;;1999.90;999.90;;;;;;;7.78;59.69;101753.25;15351976;29;20044;-75
2021/04/22 23:52:28;;;;;;;1999.90;999.90;;;;;;;7.77;59.96;101755.22;15376275;28;20039;-75
